createdAt,value
2018-04-19T00:01:34.292Z,16.80
2018-04-19T00:04:01.934Z,16.90
2018-04-19T00:06:29.578Z,16.87
2018-04-19T00:08:57.242Z,16.83
2018-04-19T00:11:24.867Z,16.80
2018-04-19T00:13:52.529Z,16.74
2018-04-19T00:16:20.168Z,16.63
2018-04-19T00:18:47.822Z,16.57
2018-04-19T00:21:15.473Z,16.43
2018-04-19T00:23:43.124Z,16.23
2018-04-19T00:26:10.773Z,16.18
2018-04-19T00:28:38.420Z,16.11
2018-04-19T00:31:06.067Z,16.11
2018-04-19T00:33:33.719Z,16.12
2018-04-19T00:36:01.388Z,16.07
2018-04-19T00:38:29.045Z,16.04
2018-04-19T00:40:56.693Z,16.08
2018-04-19T00:43:24.343Z,16.10
2018-04-19T00:45:51.988Z,15.96
2018-04-19T00:48:19.681Z,15.93
2018-04-19T00:50:47.341Z,15.95
2018-04-19T00:53:14.997Z,15.91
2018-04-19T00:55:42.643Z,15.93
2018-04-19T00:58:10.317Z,15.88
2018-04-19T01:00:37.956Z,15.82
2018-04-19T01:03:05.600Z,15.81
2018-04-19T01:05:33.247Z,15.72
2018-04-19T01:08:00.892Z,15.60
2018-04-19T01:10:28.546Z,15.62
2018-04-19T01:12:56.188Z,15.57
2018-04-19T01:15:23.842Z,15.48
2018-04-19T01:17:51.484Z,15.40
2018-04-19T01:20:19.144Z,15.25
2018-04-19T01:22:46.784Z,15.21
2018-04-19T01:25:14.486Z,15.12
2018-04-19T01:27:42.100Z,15.02
2018-04-19T01:30:09.751Z,14.98
2018-04-19T01:32:37.403Z,14.91
2018-04-19T01:35:05.044Z,14.80
2018-04-19T01:37:32.687Z,14.70
2018-04-19T01:40:00.340Z,14.70
2018-04-19T01:42:27.976Z,14.61
2018-04-19T01:44:55.623Z,14.55
2018-04-19T01:47:23.271Z,14.54
2018-04-19T01:49:50.913Z,14.53
2018-04-19T01:52:18.568Z,14.52
2018-04-19T01:54:46.235Z,14.41
2018-04-19T01:57:13.896Z,14.32
2018-04-19T01:59:41.523Z,14.32
2018-04-19T02:02:09.185Z,14.25
2018-04-19T02:04:36.828Z,14.12
2018-04-19T02:07:04.512Z,14.16
2018-04-19T02:09:32.110Z,14.27
2018-04-19T02:11:59.774Z,14.33
2018-04-19T02:14:27.413Z,14.43
2018-04-19T02:16:55.084Z,14.42
2018-04-19T02:19:22.728Z,14.44
2018-04-19T02:21:50.382Z,14.45
2018-04-19T02:24:18.042Z,14.46
2018-04-19T02:26:45.674Z,14.44
2018-04-19T02:29:13.319Z,14.34
2018-04-19T02:31:40.968Z,14.18
2018-04-19T02:34:08.637Z,14.16
2018-04-19T02:36:36.288Z,14.21
2018-04-19T02:39:03.950Z,14.18
2018-04-19T02:41:31.608Z,14.20
2018-04-19T02:43:59.242Z,14.18
2018-04-19T02:46:26.884Z,14.13
2018-04-19T02:48:54.527Z,13.99
2018-04-19T02:51:22.167Z,13.87
2018-04-19T02:53:49.814Z,13.93
2018-04-19T02:56:17.453Z,13.94
2018-04-19T02:58:45.095Z,13.94
2018-04-19T03:01:12.736Z,13.84
2018-04-19T03:03:40.391Z,13.77
2018-04-19T03:06:08.032Z,13.74
2018-04-19T03:08:35.697Z,13.77
2018-04-19T03:11:03.338Z,13.78
2018-04-19T03:13:30.987Z,13.69
2018-04-19T03:15:58.628Z,13.52
2018-04-19T03:18:26.280Z,13.55
2018-04-19T03:20:53.916Z,13.53
2018-04-19T03:23:21.567Z,13.51
2018-04-19T03:25:49.226Z,13.64
2018-04-19T03:28:16.875Z,13.67
2018-04-19T03:30:44.522Z,13.72
2018-04-19T03:33:12.181Z,13.80
2018-04-19T03:35:39.984Z,13.87
2018-04-19T03:38:07.633Z,13.85
2018-04-19T03:40:35.286Z,13.91
2018-04-19T03:43:02.937Z,13.93
2018-04-19T03:45:30.593Z,13.90
2018-04-19T03:47:58.252Z,13.93
2018-04-19T03:50:25.897Z,13.87
2018-04-19T03:52:53.549Z,13.77
2018-04-19T03:55:21.193Z,13.80
2018-04-19T03:57:48.839Z,13.84
2018-04-19T04:00:16.496Z,13.73
2018-04-19T04:02:44.140Z,13.60
2018-04-19T04:05:11.795Z,13.55
2018-04-19T04:07:39.435Z,13.57
2018-04-19T04:10:07.084Z,13.60
2018-04-19T04:12:34.715Z,13.52
2018-04-19T04:15:02.364Z,13.49
2018-04-19T04:17:35.830Z,13.47
2018-04-19T04:20:09.364Z,13.51
2018-04-19T04:22:42.823Z,13.48
2018-04-19T04:25:10.472Z,13.50
2018-04-19T04:27:38.117Z,13.43
2018-04-19T04:30:05.760Z,13.40
2018-04-19T04:32:33.402Z,13.39
2018-04-19T04:35:01.056Z,13.41
2018-04-19T04:37:28.708Z,13.42
2018-04-19T04:39:56.400Z,13.31
2018-04-19T04:42:24.036Z,13.24
2018-04-19T04:44:51.692Z,13.24
2018-04-19T04:47:19.348Z,13.25
2018-04-19T04:49:46.996Z,13.28
2018-04-19T04:52:14.649Z,13.27
2018-04-19T04:54:42.298Z,13.33
2018-04-19T04:57:09.931Z,13.39
2018-04-19T04:59:37.584Z,13.45
2018-04-19T05:02:05.303Z,13.48
2018-04-19T05:04:32.954Z,13.53
2018-04-19T05:07:00.592Z,13.61
2018-04-19T05:09:28.242Z,13.70
2018-04-19T05:11:55.891Z,13.79
2018-04-19T05:14:23.541Z,13.89
2018-04-19T05:16:51.191Z,13.93
2018-04-19T05:19:18.831Z,14.00
2018-04-19T05:21:46.487Z,14.11
2018-04-19T05:24:14.128Z,14.22
2018-04-19T05:26:41.783Z,14.29
2018-04-19T05:29:09.428Z,14.40
2018-04-19T05:31:37.085Z,14.53
2018-04-19T05:34:04.727Z,14.63
2018-04-19T05:36:32.380Z,14.70
2018-04-19T05:39:00.018Z,14.73
2018-04-19T05:41:27.669Z,14.76
2018-04-19T05:43:55.312Z,14.76
2018-04-19T05:46:22.956Z,14.85
2018-04-19T05:48:50.612Z,14.92
2018-04-19T05:51:18.255Z,15.11
2018-04-19T05:53:45.903Z,15.20
2018-04-19T05:56:13.548Z,15.38
2018-04-19T05:58:41.195Z,15.47
2018-04-19T06:01:08.836Z,15.63
2018-04-19T06:03:36.509Z,15.81
2018-04-19T06:06:04.152Z,15.99
2018-04-19T06:08:31.796Z,16.12
2018-04-19T06:10:59.435Z,16.26
2018-04-19T06:13:27.092Z,16.34
2018-04-19T06:15:54.731Z,16.51
2018-04-19T06:18:22.380Z,16.69
2018-04-19T06:20:50.022Z,16.86
2018-04-19T06:23:17.676Z,16.99
2018-04-19T06:25:45.322Z,17.10
2018-04-19T06:28:12.985Z,17.26
2018-04-19T06:30:40.615Z,17.42
2018-04-19T06:33:08.272Z,17.50
2018-04-19T06:35:35.995Z,17.70
2018-04-19T06:38:03.664Z,17.83
2018-04-19T06:40:31.308Z,17.88
2018-04-19T06:42:58.951Z,18.01
2018-04-19T06:45:26.612Z,18.16
2018-04-19T06:47:54.253Z,18.36
2018-04-19T06:50:21.949Z,18.44
2018-04-19T06:52:49.615Z,18.57
2018-04-19T06:55:17.279Z,18.72
2018-04-19T06:57:45.036Z,18.78
2018-04-19T07:00:12.700Z,18.92
2018-04-19T07:02:40.348Z,19.15
2018-04-19T07:05:08.021Z,19.29
2018-04-19T07:07:35.675Z,19.30
2018-04-19T07:10:03.332Z,19.48
2018-04-19T07:12:30.975Z,19.79
2018-04-19T07:14:58.651Z,19.92
2018-04-19T07:17:26.303Z,19.95
2018-04-19T07:19:53.953Z,20.04
2018-04-19T07:22:21.595Z,19.97
2018-04-19T07:24:49.308Z,20.01
2018-04-19T07:27:16.955Z,20.11
2018-04-19T07:29:44.625Z,20.62
2018-04-19T07:32:12.326Z,20.89
2018-04-19T07:34:39.939Z,20.84
2018-04-19T07:37:07.604Z,21.12
2018-04-19T07:39:35.266Z,21.47
2018-04-19T07:42:02.914Z,21.82
2018-04-19T07:44:30.560Z,21.84
2018-04-19T07:46:58.239Z,22.26
2018-04-19T07:49:25.892Z,22.48
2018-04-19T07:51:53.538Z,22.63
2018-04-19T07:54:21.191Z,22.96
2018-04-19T07:56:48.836Z,23.17
2018-04-19T07:59:16.553Z,23.44
2018-04-19T08:01:44.209Z,23.42
2018-04-19T08:04:11.838Z,23.84
2018-04-19T08:06:39.494Z,24.03
2018-04-19T08:09:07.146Z,23.83
2018-04-19T08:11:34.789Z,24.01
2018-04-19T08:14:02.424Z,24.25
2018-04-19T08:16:30.075Z,24.05
2018-04-19T08:18:57.736Z,24.25
2018-04-19T08:21:25.391Z,24.08
2018-04-19T08:23:53.028Z,24.14
2018-04-19T08:26:20.685Z,24.39
2018-04-19T08:28:48.329Z,24.32
2018-04-19T08:31:15.989Z,24.48
2018-04-19T08:33:43.667Z,24.71
2018-04-19T08:36:11.289Z,24.77
2018-04-19T08:38:38.932Z,25.44
2018-04-19T08:41:06.586Z,25.69
2018-04-19T08:43:34.229Z,25.44
2018-04-19T08:46:01.867Z,25.50
2018-04-19T08:48:29.521Z,25.60
2018-04-19T08:50:57.166Z,26.44
2018-04-19T08:53:24.817Z,27.13
2018-04-19T08:55:52.456Z,26.96
2018-04-19T08:58:20.108Z,26.82
2018-04-19T09:00:47.844Z,26.62
2018-04-19T09:03:15.500Z,27.17
2018-04-19T09:05:43.151Z,27.23
2018-04-19T09:08:10.827Z,27.03
2018-04-19T09:10:38.529Z,26.80
2018-04-19T09:13:06.159Z,27.23
2018-04-19T09:15:33.799Z,27.34
2018-04-19T09:18:01.458Z,27.49
2018-04-19T09:20:29.113Z,28.05
2018-04-19T09:22:56.766Z,28.07
2018-04-19T09:25:24.407Z,28.31
2018-04-19T09:27:52.055Z,28.16
2018-04-19T09:30:19.700Z,28.65
2018-04-19T09:32:47.351Z,28.38
2018-04-19T09:35:14.992Z,28.47
2018-04-19T09:37:42.659Z,28.62
2018-04-19T09:40:10.310Z,29.07
2018-04-19T09:42:38.054Z,29.31
2018-04-19T09:45:05.671Z,29.46
2018-04-19T09:47:33.309Z,29.55
2018-04-19T09:50:00.961Z,29.83
2018-04-19T09:52:28.615Z,30.24
2018-04-19T09:54:56.267Z,30.20
2018-04-19T09:57:23.914Z,29.62
2018-04-19T09:59:51.559Z,29.24
2018-04-19T10:02:24.789Z,29.44
2018-04-19T10:04:52.384Z,29.53
2018-04-19T10:07:20.035Z,29.41
2018-04-19T10:09:47.688Z,29.32
2018-04-19T10:12:15.337Z,28.95
2018-04-19T10:14:42.987Z,29.24
2018-04-19T10:17:10.636Z,29.21
2018-04-19T10:19:38.279Z,29.76
2018-04-19T10:22:05.920Z,30.39
2018-04-19T10:24:33.572Z,30.59
2018-04-19T10:27:01.222Z,30.53
2018-04-19T10:29:28.876Z,30.26
2018-04-19T10:31:56.517Z,30.28
2018-04-19T10:34:24.175Z,30.28
2018-04-19T10:36:51.820Z,29.91
2018-04-19T10:39:19.472Z,28.93
2018-04-19T10:41:47.114Z,29.03
2018-04-19T10:44:14.780Z,29.51
2018-04-19T10:46:42.417Z,29.90
2018-04-19T10:49:10.124Z,29.62
2018-04-19T10:51:37.782Z,29.57
2018-04-19T10:54:05.454Z,30.30
2018-04-19T10:56:33.116Z,30.76
2018-04-19T10:59:00.760Z,31.27
2018-04-19T11:01:28.419Z,30.96
2018-04-19T11:03:56.068Z,30.39
2018-04-19T11:06:23.723Z,30.38
2018-04-19T11:08:51.360Z,30.62
2018-04-19T11:11:19.011Z,30.58
2018-04-19T11:13:46.660Z,30.17
2018-04-19T11:16:14.312Z,30.46
2018-04-19T11:18:41.955Z,30.47
2018-04-19T11:21:09.616Z,30.06
2018-04-19T11:23:37.256Z,30.24
2018-04-19T11:26:04.904Z,30.79
2018-04-19T11:28:32.540Z,31.16
2018-04-19T11:31:00.200Z,30.72
2018-04-19T11:33:27.840Z,30.34
2018-04-19T11:35:55.485Z,30.12
2018-04-19T11:38:23.137Z,30.13
2018-04-19T11:40:50.772Z,30.10
2018-04-19T11:43:18.426Z,29.83
2018-04-19T11:45:46.065Z,30.35
2018-04-19T11:48:13.715Z,31.00
2018-04-19T11:50:41.356Z,30.90
2018-04-19T11:53:09.012Z,31.26
2018-04-19T11:55:36.658Z,30.86
2018-04-19T11:58:04.316Z,31.13
2018-04-19T12:00:31.963Z,30.59
2018-04-19T12:02:59.612Z,30.25
2018-04-19T12:05:27.265Z,30.21
2018-04-19T12:07:54.912Z,30.26
2018-04-19T12:10:22.560Z,30.39
2018-04-19T12:12:50.216Z,30.54
2018-04-19T12:15:17.864Z,30.51
2018-04-19T12:17:45.516Z,30.92
2018-04-19T12:20:13.159Z,31.00
2018-04-19T12:22:40.812Z,31.08
2018-04-19T12:25:08.455Z,30.85
2018-04-19T12:27:36.099Z,31.00
2018-04-19T12:30:03.772Z,31.25
2018-04-19T12:32:31.418Z,31.38
2018-04-19T12:34:59.080Z,30.94
2018-04-19T12:37:26.749Z,30.88
2018-04-19T12:39:54.380Z,30.85
2018-04-19T12:42:22.024Z,30.57
2018-04-19T12:44:49.671Z,30.78
2018-04-19T12:47:17.316Z,30.80
2018-04-19T12:49:44.965Z,31.23
2018-04-19T12:52:12.608Z,31.51
2018-04-19T12:54:40.257Z,31.35
2018-04-19T12:57:07.898Z,31.60
2018-04-19T12:59:35.552Z,31.50
2018-04-19T13:02:03.197Z,31.95
2018-04-19T13:04:30.848Z,31.88
2018-04-19T13:06:58.495Z,31.37
2018-04-19T13:09:26.143Z,31.14
2018-04-19T13:11:53.783Z,30.97
2018-04-19T13:14:21.445Z,31.04
2018-04-19T13:16:49.097Z,31.20
2018-04-19T13:19:16.745Z,31.33
2018-04-19T13:21:44.386Z,31.39
2018-04-19T13:24:12.032Z,31.64
2018-04-19T13:26:39.684Z,32.07
2018-04-19T13:29:07.336Z,31.68
2018-04-19T13:31:34.976Z,30.80
2018-04-19T13:34:02.623Z,30.82
2018-04-19T13:36:30.268Z,30.59
2018-04-19T13:38:57.924Z,30.82
2018-04-19T13:41:25.616Z,31.50
2018-04-19T13:43:53.232Z,31.46
2018-04-19T13:46:20.876Z,30.93
2018-04-19T13:48:48.529Z,30.83
2018-04-19T13:51:16.174Z,30.74
2018-04-19T13:53:43.815Z,30.64
2018-04-19T13:56:11.464Z,30.42
2018-04-19T13:58:39.115Z,30.58
2018-04-19T14:01:06.768Z,30.83
2018-04-19T14:03:34.412Z,31.04
2018-04-19T14:06:02.065Z,30.68
2018-04-19T14:08:29.703Z,30.66
2018-04-19T14:10:57.348Z,30.86
2018-04-19T14:13:25.007Z,30.78
2018-04-19T14:15:52.636Z,30.56
2018-04-19T14:18:20.283Z,31.08
2018-04-19T14:20:47.988Z,31.14
2018-04-19T14:23:15.574Z,30.31
2018-04-19T14:25:43.223Z,30.32
2018-04-19T14:28:10.875Z,30.33
2018-04-19T14:30:38.519Z,30.38
2018-04-19T14:33:06.171Z,30.60
2018-04-19T14:35:33.816Z,30.99
2018-04-19T14:38:01.461Z,30.86
2018-04-19T14:40:29.111Z,30.75
2018-04-19T14:42:56.759Z,30.68
2018-04-19T14:45:24.416Z,30.52
2018-04-19T14:47:52.067Z,30.68
2018-04-19T14:50:19.724Z,30.24
2018-04-19T14:52:47.371Z,30.25
2018-04-19T14:55:15.083Z,29.96
2018-04-19T14:57:42.740Z,29.99
2018-04-19T15:00:10.357Z,30.33
2018-04-19T15:02:37.999Z,30.51
2018-04-19T15:05:05.658Z,30.64
2018-04-19T15:07:33.300Z,30.78
2018-04-19T15:10:00.952Z,30.42
2018-04-19T15:12:28.600Z,30.27
2018-04-19T15:14:56.257Z,30.31
2018-04-19T15:17:23.965Z,30.15
2018-04-19T15:19:51.622Z,30.17
2018-04-19T15:22:19.265Z,30.16
2018-04-19T15:24:47.098Z,30.23
2018-04-19T15:27:14.743Z,30.04
2018-04-19T15:29:42.410Z,30.00
2018-04-19T15:32:10.048Z,29.87
2018-04-19T15:34:37.716Z,29.67
2018-04-19T15:37:05.364Z,29.73
2018-04-19T15:39:33.012Z,29.62
2018-04-19T15:42:00.667Z,29.59
2018-04-19T15:44:28.324Z,29.27
2018-04-19T15:46:55.990Z,28.93
2018-04-19T15:49:23.625Z,28.61
2018-04-19T15:51:51.277Z,28.58
2018-04-19T15:54:18.912Z,28.54
2018-04-19T15:56:46.576Z,28.42
2018-04-19T15:59:14.321Z,28.41
2018-04-19T16:01:41.972Z,28.39
2018-04-19T16:04:09.625Z,28.50
2018-04-19T16:06:37.275Z,28.43
2018-04-19T16:09:04.920Z,28.28
2018-04-19T16:11:32.588Z,28.52
2018-04-19T16:14:00.244Z,28.59
2018-04-19T16:16:27.886Z,28.36
2018-04-19T16:18:55.584Z,28.46
2018-04-19T16:21:23.192Z,28.37
2018-04-19T16:23:50.956Z,28.63
2018-04-19T16:26:18.584Z,28.41
2018-04-19T16:28:48.622Z,28.52
2018-04-19T16:31:13.910Z,28.33
2018-04-19T16:33:41.661Z,28.39
2018-04-19T16:36:09.316Z,28.26
2018-04-19T16:38:37.024Z,28.14
2018-04-19T16:41:04.870Z,28.13
2018-04-19T16:43:32.603Z,28.27
2018-04-19T16:46:00.514Z,28.40
2018-04-19T16:48:28.238Z,28.20
2018-04-19T16:50:55.876Z,28.14
2018-04-19T16:53:23.526Z,28.29
2018-04-19T16:55:51.175Z,28.29
2018-04-19T16:58:18.821Z,28.33
2018-04-19T17:00:46.476Z,28.19
2018-04-19T17:03:14.278Z,28.00
2018-04-19T17:05:41.901Z,27.82
2018-04-19T17:08:09.539Z,27.70
2018-04-19T17:10:37.188Z,27.91
2018-04-19T17:13:04.841Z,27.78
2018-04-19T17:15:32.488Z,27.54
2018-04-19T17:18:00.128Z,27.55
2018-04-19T17:20:27.767Z,27.73
2018-04-19T17:22:55.428Z,27.51
2018-04-19T17:25:23.072Z,27.35
2018-04-19T17:27:50.733Z,27.29
2018-04-19T17:30:18.368Z,26.96
2018-04-19T17:32:46.023Z,26.91
2018-04-19T17:35:13.688Z,26.88
2018-04-19T17:37:41.340Z,26.76
2018-04-19T17:40:09.009Z,26.48
2018-04-19T17:42:36.771Z,26.51
2018-04-19T17:45:04.437Z,26.58
2018-04-19T17:47:32.095Z,26.63
2018-04-19T17:49:59.743Z,26.45
2018-04-19T17:52:27.400Z,26.46
2018-04-19T17:54:55.044Z,26.46
2018-04-19T17:57:22.691Z,26.41
2018-04-19T17:59:50.335Z,26.37
2018-04-19T18:02:18.000Z,26.55
2018-04-19T18:04:45.897Z,26.72
2018-04-19T18:07:13.650Z,26.82
2018-04-19T18:09:41.639Z,26.77
2018-04-19T18:12:09.911Z,26.71
2018-04-19T18:14:37.721Z,26.61
2018-04-19T18:17:05.637Z,26.58
2018-04-19T18:19:33.618Z,26.56
2018-04-19T18:22:01.459Z,26.52
2018-04-19T18:24:29.069Z,26.45
2018-04-19T18:26:56.711Z,26.48
2018-04-19T18:29:24.459Z,26.59
2018-04-19T18:31:52.117Z,26.67
2018-04-19T18:34:19.760Z,26.45
2018-04-19T18:36:47.456Z,26.12
2018-04-19T18:39:15.065Z,25.82
2018-04-19T18:41:43.463Z,25.80
2018-04-19T18:44:11.116Z,26.06
2018-04-19T18:46:38.774Z,25.85
2018-04-19T18:49:06.474Z,25.79
2018-04-19T18:51:34.144Z,25.95
2018-04-19T18:54:01.788Z,25.85
2018-04-19T18:56:29.452Z,25.78
2018-04-19T18:58:57.112Z,25.71
2018-04-19T19:01:24.867Z,25.77
2018-04-19T19:03:52.523Z,25.55
2018-04-19T19:06:20.177Z,25.67
2018-04-19T19:08:47.843Z,25.66
2018-04-19T19:11:15.498Z,25.75
2018-04-19T19:13:45.773Z,25.78
2018-04-19T19:16:14.515Z,25.84
2018-04-19T19:18:48.356Z,25.82
2018-04-19T19:21:16.262Z,25.96
2018-04-19T19:23:43.916Z,25.96
2018-04-19T19:26:11.568Z,25.87
2018-04-19T19:28:39.216Z,25.85
2018-04-19T19:31:06.859Z,25.89
2018-04-19T19:33:34.512Z,25.82
2018-04-19T19:36:02.160Z,25.69
2018-04-19T19:38:29.828Z,25.66
2018-04-19T19:40:57.464Z,25.32
2018-04-19T19:43:25.111Z,25.57
2018-04-19T19:45:52.765Z,25.77
2018-04-19T19:48:20.452Z,25.86
2018-04-19T19:50:48.099Z,25.87
2018-04-19T19:53:15.763Z,25.89
2018-04-19T19:55:43.406Z,25.59
2018-04-19T19:58:11.060Z,25.64
2018-04-19T20:00:38.705Z,25.66
2018-04-19T20:03:06.353Z,25.72
2018-04-19T20:05:34.083Z,25.66
2018-04-19T20:08:01.724Z,25.70
2018-04-19T20:10:29.400Z,25.59
2018-04-19T20:12:57.047Z,25.64
2018-04-19T20:15:24.682Z,25.75
2018-04-19T20:17:52.359Z,25.70
2018-04-19T20:20:20.017Z,25.65
2018-04-19T20:22:47.681Z,25.60
2018-04-19T20:25:15.359Z,25.56
2018-04-19T20:27:43.008Z,25.56
2018-04-19T20:30:10.676Z,25.47
2018-04-19T20:32:38.449Z,25.46
2018-04-19T20:35:06.098Z,25.37
2018-04-19T20:37:33.768Z,25.18
2018-04-19T20:40:01.409Z,24.87
2018-04-19T20:42:29.068Z,24.76
2018-04-19T20:44:56.716Z,24.80
2018-04-19T20:47:24.375Z,24.70
2018-04-19T20:49:52.019Z,24.65
2018-04-19T20:52:19.669Z,24.69
2018-04-19T20:54:47.320Z,24.73
2018-04-19T20:57:14.977Z,24.83
2018-04-19T20:59:42.713Z,24.74
2018-04-19T21:02:10.377Z,24.76
2018-04-19T21:04:38.008Z,24.85
2018-04-19T21:07:05.660Z,24.72
2018-04-19T21:09:33.351Z,24.71
2018-04-19T21:12:00.995Z,24.50
2018-04-19T21:14:28.648Z,24.25
2018-04-19T21:16:56.292Z,24.13
2018-04-19T21:19:23.988Z,24.16
2018-04-19T21:21:51.632Z,24.36
2018-04-19T21:24:19.306Z,24.18
2018-04-19T21:26:46.963Z,24.35
2018-04-19T21:29:14.620Z,24.49
2018-04-19T21:31:42.370Z,24.52
2018-04-19T21:34:09.982Z,24.61
2018-04-19T21:36:37.624Z,24.64
2018-04-19T21:39:05.384Z,24.55
2018-04-19T21:41:33.031Z,24.47
2018-04-19T21:44:00.735Z,24.55
2018-04-19T21:46:28.372Z,24.53
2018-04-19T21:48:56.024Z,24.61
2018-04-19T21:51:23.676Z,24.62
2018-04-19T21:53:51.328Z,24.56
2018-04-19T21:56:18.976Z,24.50
2018-04-19T21:58:46.624Z,24.43
2018-04-19T22:01:14.263Z,24.27
2018-04-19T22:03:41.985Z,23.92
2018-04-19T22:06:09.632Z,23.58
2018-04-19T22:08:37.300Z,23.39
2018-04-19T22:11:04.975Z,23.08
2018-04-19T22:13:32.725Z,22.93
2018-04-19T22:16:00.391Z,23.00
2018-04-19T22:18:28.043Z,23.01
2018-04-19T22:20:55.684Z,23.05
2018-04-19T22:23:23.335Z,22.82
2018-04-19T22:25:51.031Z,22.53
2018-04-19T22:28:18.794Z,22.63
2018-04-19T22:30:46.447Z,22.62
2018-04-19T22:33:14.116Z,22.51
2018-04-19T22:35:41.755Z,22.18
2018-04-19T22:38:09.423Z,22.11
2018-04-19T22:40:37.092Z,22.23
2018-04-19T22:43:04.762Z,22.23
2018-04-19T22:45:32.404Z,22.26
2018-04-19T22:48:00.071Z,22.31
2018-04-19T22:50:27.728Z,22.37
2018-04-19T22:52:55.376Z,22.16
2018-04-19T22:55:23.015Z,22.00
2018-04-19T22:57:50.657Z,22.00
2018-04-19T23:00:18.307Z,22.14
2018-04-19T23:02:45.717Z,22.11
2018-04-19T23:05:13.381Z,22.19
2018-04-19T23:07:41.012Z,22.15
2018-04-19T23:10:08.714Z,22.09
2018-04-19T23:12:36.352Z,22.02
2018-04-19T23:15:04.006Z,21.83
2018-04-19T23:17:31.713Z,21.80
2018-04-19T23:19:59.352Z,21.92
2018-04-19T23:22:32.819Z,21.83
2018-04-19T23:25:00.558Z,21.71
2018-04-19T23:27:28.176Z,21.45
2018-04-19T23:29:55.830Z,21.41
2018-04-19T23:32:23.476Z,21.51
2018-04-19T23:34:51.128Z,21.66
2018-04-19T23:37:18.807Z,21.59
2018-04-19T23:39:46.460Z,21.46
2018-04-19T23:42:14.132Z,21.47
2018-04-19T23:44:41.900Z,21.45
2018-04-19T23:47:09.652Z,21.54
2018-04-19T23:49:37.307Z,21.48
2018-04-19T23:52:04.980Z,21.39
2018-04-19T23:54:32.627Z,21.33
2018-04-19T23:57:00.273Z,21.29
2018-04-19T23:59:27.932Z,21.40
